Time;durP1;ratioP1;P1;durP2;ratioP2;P2;SDS_P1;SDS_P2;PMS_P1;PMS_P2;Temp;Humidity;BMP_temperature;BMP_pressure;BME280_temperature;BME280_humidity;BME280_pressure;Samples;Min_cycle;Max_cycle;Signal;HPM_P1;HPM_P2
2023/12/12 00:01:11;;;;;;;10.00;4.07;;;;;;;;;;5157272;27;20051;-64
2023/12/12 00:03:38;;;;;;;11.73;4.10;;;;;;;;;;5156671;27;20062;-64
2023/12/12 00:06:07;;;;;;;11.45;4.20;;;;;;;;;;5157160;27;20060;-64
2023/12/12 00:08:35;;;;;;;10.88;3.88;;;;;;;;;;5156968;27;20402;-64
2023/12/12 00:11:02;;;;;;;11.82;3.63;;;;;;;;;;5157154;27;20399;-64
2023/12/12 00:13:29;;;;;;;8.70;3.85;;;;;;;;;;5156885;27;20505;-64
2023/12/12 00:15:56;;;;;;;9.75;4.30;;;;;;;;;;5139792;27;20050;-64
2023/12/12 00:18:23;;;;;;;9.27;3.10;;;;;;;;;;5156873;27;20403;-64
2023/12/12 00:20:49;;;;;;;10.02;3.58;;;;;;;;;;5156550;27;20050;-64
2023/12/12 00:23:16;;;;;;;7.50;3.70;;;;;;;;;;5156745;27;20073;-64
2023/12/12 00:25:45;;;;;;;10.23;3.38;;;;;;;;;;5156499;27;20051;-65
2023/12/12 00:28:11;;;;;;;9.93;3.47;;;;;;;;;;5156598;27;20062;-65
2023/12/12 00:30:38;;;;;;;10.50;3.72;;;;;;;;;;5156520;27;20492;-64
2023/12/12 00:33:05;;;;;;;9.00;3.53;;;;;;;;;;5156518;27;20061;-64
2023/12/12 00:35:32;;;;;;;7.13;3.42;;;;;;;;;;5155712;27;20058;-64
2023/12/12 00:37:59;;;;;;;12.60;3.25;;;;;;;;;;5155899;27;20058;-64
2023/12/12 00:40:26;;;;;;;8.23;2.95;;;;;;;;;;5156015;27;20050;-64
2023/12/12 00:42:54;;;;;;;6.97;2.83;;;;;;;;;;5156118;27;20051;-64
2023/12/12 00:45:21;;;;;;;7.53;2.92;;;;;;;;;;5156291;27;20054;-64
2023/12/12 00:47:47;;;;;;;9.68;2.65;;;;;;;;;;5155695;27;20053;-63
2023/12/12 00:50:14;;;;;;;8.27;2.80;;;;;;;;;;5156028;27;20051;-64
2023/12/12 00:52:41;;;;;;;10.32;3.15;;;;;;;;;;5156009;27;20050;-64
2023/12/12 00:55:08;;;;;;;10.13;2.72;;;;;;;;;;5155841;27;20050;-64
2023/12/12 00:57:35;;;;;;;10.75;2.78;;;;;;;;;;5155602;27;20043;-64
2023/12/12 01:00:03;;;;;;;11.88;2.70;;;;;;;;;;5155575;27;20046;-64
2023/12/12 01:02:30;;;;;;;7.43;2.50;;;;;;;;;;5145792;27;20051;-64
2023/12/12 01:04:57;;;;;;;8.05;2.50;;;;;;;;;;5134274;27;20058;-64
2023/12/12 01:07:24;;;;;;;9.07;3.10;;;;;;;;;;5135107;27;20395;-64
2023/12/12 01:09:50;;;;;;;5.75;2.30;;;;;;;;;;5134668;27;20062;-64
2023/12/12 01:12:17;;;;;;;9.07;2.30;;;;;;;;;;5133430;27;20082;-63
2023/12/12 01:14:44;;;;;;;8.05;2.60;;;;;;;;;;5129566;27;20043;-64
2023/12/12 01:17:12;;;;;;;7.82;2.50;;;;;;;;;;5114110;28;20484;-64
2023/12/12 01:19:39;;;;;;;9.55;2.65;;;;;;;;;;5113843;28;20059;-64
2023/12/12 01:22:06;;;;;;;7.68;2.35;;;;;;;;;;5114192;28;20485;-64
2023/12/12 01:24:34;;;;;;;8.85;2.83;;;;;;;;;;5118433;27;20051;-64
2023/12/12 01:27:01;;;;;;;8.02;2.40;;;;;;;;;;5134394;27;20051;-64
2023/12/12 01:29:28;;;;;;;9.57;2.50;;;;;;;;;;5134293;27;20051;-64
2023/12/12 01:31:55;;;;;;;6.80;2.33;;;;;;;;;;5134034;27;20055;-64
2023/12/12 01:34:23;;;;;;;6.80;2.72;;;;;;;;;;5134161;27;20388;-64
2023/12/12 01:36:50;;;;;;;10.90;2.47;;;;;;;;;;5134121;27;20051;-64
2023/12/12 01:39:16;;;;;;;9.13;2.58;;;;;;;;;;5133701;27;20051;-64
2023/12/12 01:41:46;;;;;;;7.18;2.60;;;;;;;;;;5134143;27;20054;-64
2023/12/12 01:44:13;;;;;;;9.32;3.08;;;;;;;;;;5133602;27;20047;-64
2023/12/12 01:46:41;;;;;;;10.10;2.78;;;;;;;;;;5134168;27;20441;-64
2023/12/12 01:49:08;;;;;;;12.18;3.20;;;;;;;;;;5133653;27;20066;-64
2023/12/12 01:51:37;;;;;;;7.47;2.67;;;;;;;;;;5134035;27;20054;-64
2023/12/12 01:54:04;;;;;;;8.32;2.50;;;;;;;;;;5133692;27;20047;-63
2023/12/12 01:56:31;;;;;;;8.82;2.65;;;;;;;;;;5133873;27;20047;-64
2023/12/12 01:58:58;;;;;;;9.38;2.85;;;;;;;;;;5133830;27;20051;-63
2023/12/12 02:01:26;;;;;;;10.45;3.13;;;;;;;;;;5133711;27;20062;-64
2023/12/12 02:03:54;;;;;;;18.92;3.35;;;;;;;;;;5133616;27;20495;-64
2023/12/12 02:06:22;;;;;;;10.07;3.17;;;;;;;;;;5133912;27;20463;-64
2023/12/12 02:08:50;;;;;;;8.50;2.53;;;;;;;;;;5133652;27;20066;-63
2023/12/12 02:11:17;;;;;;;12.27;3.40;;;;;;;;;;5134044;27;20388;-64
2023/12/12 02:13:44;;;;;;;10.80;3.00;;;;;;;;;;5133468;27;20058;-64
2023/12/12 02:16:12;;;;;;;9.40;3.42;;;;;;;;;;5133802;27;20409;-64
2023/12/12 02:18:39;;;;;;;13.48;3.40;;;;;;;;;;5133574;27;20051;-64
2023/12/12 02:21:06;;;;;;;10.50;3.47;;;;;;;;;;5133388;27;20053;-64
2023/12/12 02:23:34;;;;;;;12.98;3.50;;;;;;;;;;5133348;27;20062;-64
2023/12/12 02:26:02;;;;;;;11.00;3.33;;;;;;;;;;5133037;27;20051;-64
2023/12/12 02:28:29;;;;;;;9.40;3.53;;;;;;;;;;5133719;27;20055;-64
2023/12/12 02:30:56;;;;;;;10.88;3.55;;;;;;;;;;5133630;27;20058;-64
2023/12/12 02:33:23;;;;;;;9.93;3.30;;;;;;;;;;5133572;27;20506;-64
2023/12/12 02:35:50;;;;;;;10.85;3.60;;;;;;;;;;5133428;27;20051;-64
2023/12/12 02:38:17;;;;;;;10.65;3.67;;;;;;;;;;5133051;27;20399;-64
2023/12/12 02:40:45;;;;;;;12.80;3.10;;;;;;;;;;5133236;27;20062;-64
2023/12/12 02:43:11;;;;;;;11.40;3.30;;;;;;;;;;5132989;27;20538;-64
2023/12/12 02:45:38;;;;;;;12.07;3.20;;;;;;;;;;5133206;28;20047;-67
2023/12/12 02:48:05;;;;;;;11.07;2.80;;;;;;;;;;5133190;28;20051;-64
2023/12/12 02:50:32;;;;;;;16.23;3.15;;;;;;;;;;5133753;28;20051;-64
2023/12/12 02:52:59;;;;;;;15.20;3.47;;;;;;;;;;5133241;28;20412;-64
2023/12/12 02:55:26;;;;;;;12.70;3.30;;;;;;;;;;5133471;28;20063;-64
2023/12/12 02:57:54;;;;;;;10.73;3.22;;;;;;;;;;5132758;28;20043;-64
2023/12/12 03:00:21;;;;;;;12.70;3.63;;;;;;;;;;5133170;28;20408;-64
2023/12/12 03:02:48;;;;;;;10.68;3.20;;;;;;;;;;5132735;28;20055;-64
2023/12/12 03:05:15;;;;;;;13.50;3.60;;;;;;;;;;5132719;28;20047;-64
2023/12/12 03:07:41;;;;;;;15.45;3.92;;;;;;;;;;5132698;28;20062;-64
2023/12/12 03:10:08;;;;;;;13.82;3.97;;;;;;;;;;5132864;28;20051;-64
2023/12/12 03:12:35;;;;;;;13.07;3.10;;;;;;;;;;5133244;28;20090;-64
2023/12/12 03:15:04;;;;;;;10.38;3.53;;;;;;;;;;5133212;28;20055;-64
2023/12/12 03:17:30;;;;;;;10.93;3.20;;;;;;;;;;5132853;28;20051;-64
2023/12/12 03:19:57;;;;;;;10.32;3.17;;;;;;;;;;5132635;28;20070;-64
2023/12/12 03:22:24;;;;;;;12.98;3.80;;;;;;;;;;5132517;28;20058;-64
2023/12/12 03:24:51;;;;;;;15.65;3.88;;;;;;;;;;5132628;28;20087;-64
2023/12/12 03:27:18;;;;;;;9.82;2.55;;;;;;;;;;5134613;27;20051;-64
2023/12/12 03:29:45;;;;;;;10.70;3.42;;;;;;;;;;5136752;27;20058;-64
2023/12/12 03:32:13;;;;;;;9.63;2.85;;;;;;;;;;5136827;27;20055;-63
2023/12/12 03:34:40;;;;;;;10.70;3.28;;;;;;;;;;5136715;27;20055;-64
2023/12/12 03:37:06;;;;;;;9.20;2.83;;;;;;;;;;5136467;27;20066;-64
2023/12/12 03:39:35;;;;;;;13.70;3.42;;;;;;;;;;5136473;27;20396;-64
2023/12/12 03:42:02;;;;;;;10.00;2.75;;;;;;;;;;5136658;27;20051;-64
2023/12/12 03:44:29;;;;;;;10.95;3.20;;;;;;;;;;5136195;27;20061;-64
2023/12/12 03:46:56;;;;;;;9.27;2.63;;;;;;;;;;5136381;27;20499;-64
2023/12/12 03:49:24;;;;;;;9.77;3.10;;;;;;;;;;5136426;27;20073;-64
2023/12/12 03:51:51;;;;;;;10.73;2.70;;;;;;;;;;5135935;27;20446;-64
2023/12/12 03:54:18;;;;;;;8.90;2.60;;;;;;;;;;5135874;27;20047;-64
2023/12/12 03:56:44;;;;;;;13.57;3.00;;;;;;;;;;5135975;27;20051;-64
2023/12/12 03:59:11;;;;;;;7.75;3.03;;;;;;;;;;5136013;27;20054;-64
2023/12/12 04:01:38;;;;;;;9.93;2.50;;;;;;;;;;5135542;27;20113;-64
2023/12/12 04:04:05;;;;;;;8.88;2.65;;;;;;;;;;5136023;27;20069;-64
2023/12/12 04:06:33;;;;;;;8.32;2.83;;;;;;;;;;5136258;27;20055;-64
2023/12/12 04:09:00;;;;;;;8.57;2.60;;;;;;;;;;5135965;27;20051;-63
2023/12/12 04:11:27;;;;;;;9.30;3.38;;;;;;;;;;5135683;27;20051;-64
2023/12/12 04:13:54;;;;;;;12.75;3.60;;;;;;;;;;5136079;27;20051;-64
2023/12/12 04:16:20;;;;;;;12.73;3.28;;;;;;;;;;5136109;27;20051;-63
2023/12/12 04:18:47;;;;;;;13.45;3.63;;;;;;;;;;5135696;27;20504;-64
2023/12/12 04:21:14;;;;;;;12.02;3.67;;;;;;;;;;5135953;27;20074;-64
2023/12/12 04:23:43;;;;;;;11.52;3.40;;;;;;;;;;5135600;27;20078;-64
2023/12/12 04:26:10;;;;;;;14.30;4.25;;;;;;;;;;5135729;27;20463;-64
2023/12/12 04:28:37;;;;;;;12.32;4.32;;;;;;;;;;5135788;27;20054;-64
2023/12/12 04:31:04;;;;;;;11.02;3.72;;;;;;;;;;5135730;27;20058;-64
2023/12/12 04:33:31;;;;;;;20.33;4.35;;;;;;;;;;5135768;27;20396;-64
2023/12/12 04:35:58;;;;;;;11.60;4.28;;;;;;;;;;5135591;27;20051;-64
2023/12/12 04:38:25;;;;;;;17.15;4.88;;;;;;;;;;5134090;27;20039;-63
2023/12/12 04:40:53;;;;;;;13.82;4.15;;;;;;;;;;5135696;27;20132;-63
2023/12/12 04:43:20;;;;;;;21.42;5.13;;;;;;;;;;5135103;27;20058;-64
2023/12/12 04:45:46;;;;;;;14.48;4.78;;;;;;;;;;5135563;27;20510;-64
2023/12/12 04:48:13;;;;;;;17.98;5.07;;;;;;;;;;5135207;27;20051;-64
2023/12/12 04:50:40;;;;;;;13.35;4.40;;;;;;;;;;5135386;27;20051;-64
2023/12/12 04:53:07;;;;;;;16.17;5.05;;;;;;;;;;5134786;27;20051;-65
2023/12/12 04:55:34;;;;;;;15.10;4.50;;;;;;;;;;5135051;27;20456;-64
2023/12/12 04:58:02;;;;;;;16.30;4.78;;;;;;;;;;5134665;27;20058;-64
2023/12/12 05:00:29;;;;;;;18.95;4.78;;;;;;;;;;5134951;27;20055;-64
2023/12/12 05:02:56;;;;;;;17.80;5.07;;;;;;;;;;5134530;27;20062;-64
2023/12/12 05:05:22;;;;;;;17.63;4.20;;;;;;;;;;5134892;27;20058;-64
2023/12/12 05:07:49;;;;;;;13.48;4.38;;;;;;;;;;5134928;27;20066;-64
2023/12/12 05:10:16;;;;;;;15.55;4.60;;;;;;;;;;5134603;27;20057;-64
2023/12/12 05:12:43;;;;;;;17.08;5.13;;;;;;;;;;5134737;27;20051;-64
2023/12/12 05:15:12;;;;;;;21.75;5.40;;;;;;;;;;5134681;27;20046;-64
2023/12/12 05:17:39;;;;;;;17.88;4.93;;;;;;;;;;5134783;27;20073;-64
2023/12/12 05:20:09;;;;;;;16.63;5.05;;;;;;;;;;5134649;27;20050;-64
2023/12/12 05:22:35;;;;;;;;;;;;;;;;;;5135176;27;20050;-64
2023/12/12 05:25:05;;;;;;;15.52;5.20;;;;;;;;;;5134276;27;19920;-64
2023/12/12 05:27:31;;;;;;;22.70;6.10;;;;;;;;;;5134719;27;20051;-64
2023/12/12 05:29:58;;;;;;;19.45;5.90;;;;;;;;;;5134656;27;20047;-64
2023/12/12 05:32:26;;;;;;;16.75;5.25;;;;;;;;;;5134249;27;20047;-64
2023/12/12 05:34:53;;;;;;;17.27;5.07;;;;;;;;;;5133995;27;20058;-63
2023/12/12 05:37:20;;;;;;;18.40;6.13;;;;;;;;;;5134374;27;20056;-65
2023/12/12 05:39:47;;;;;;;16.45;5.20;;;;;;;;;;5134028;27;20051;-64
2023/12/12 05:42:14;;;;;;;14.85;6.30;;;;;;;;;;5134537;27;20059;-63
2023/12/12 05:44:41;;;;;;;16.55;5.85;;;;;;;;;;5134183;27;20047;-63
2023/12/12 05:47:09;;;;;;;18.85;6.43;;;;;;;;;;5134136;27;20062;-63
2023/12/12 05:49:37;;;;;;;17.40;6.18;;;;;;;;;;5133646;27;20066;-63
2023/12/12 05:52:05;;;;;;;19.17;6.63;;;;;;;;;;5134328;27;20426;-63
2023/12/12 05:54:31;;;;;;;22.60;6.55;;;;;;;;;;5133950;27;20058;-63
2023/12/12 05:56:59;;;;;;;20.55;6.07;;;;;;;;;;5134027;27;20058;-63
2023/12/12 05:59:26;;;;;;;20.02;6.78;;;;;;;;;;5133768;27;20384;-63
2023/12/12 06:01:52;;;;;;;20.45;7.40;;;;;;;;;;5133944;27;20059;-63
2023/12/12 06:04:19;;;;;;;15.75;6.20;;;;;;;;;;5133969;27;20063;-64
2023/12/12 06:06:47;;;;;;;22.52;6.70;;;;;;;;;;5133797;27;20062;-66
2023/12/12 06:09:16;;;;;;;22.80;6.68;;;;;;;;;;5133528;27;20043;-66
2023/12/12 06:11:43;;;;;;;26.55;6.78;;;;;;;;;;5133837;27;20510;-65
2023/12/12 06:14:10;;;;;;;25.67;7.43;;;;;;;;;;5133228;27;20054;-63
2023/12/12 06:16:37;;;;;;;20.85;6.93;;;;;;;;;;5133329;27;20065;-64
2023/12/12 06:19:05;;;;;;;19.05;7.28;;;;;;;;;;5133549;27;20047;-62
2023/12/12 06:21:33;;;;;;;24.90;7.28;;;;;;;;;;5133799;27;20165;-63
2023/12/12 06:24:01;;;;;;;28.48;8.10;;;;;;;;;;5133467;27;20058;-63
2023/12/12 06:26:28;;;;;;;20.90;7.30;;;;;;;;;;5133211;27;20055;-63
2023/12/12 06:28:55;;;;;;;19.95;6.63;;;;;;;;;;5133246;27;20047;-63
2023/12/12 06:31:22;;;;;;;25.27;7.00;;;;;;;;;;5133601;27;20059;-64
2023/12/12 06:33:50;;;;;;;21.48;6.10;;;;;;;;;;5133210;27;20058;-63
2023/12/12 06:36:17;;;;;;;15.93;5.97;;;;;;;;;;5133424;27;20054;-63
2023/12/12 06:38:43;;;;;;;17.67;6.03;;;;;;;;;;5133441;27;20395;-64
2023/12/12 06:41:11;;;;;;;18.67;6.72;;;;;;;;;;5133343;27;20074;-63
2023/12/12 06:43:38;;;;;;;16.67;6.22;;;;;;;;;;5132898;27;20055;-63
2023/12/12 06:46:05;;;;;;;16.48;6.18;;;;;;;;;;5133267;27;20062;-63
2023/12/12 06:48:32;;;;;;;14.90;5.47;;;;;;;;;;5133170;28;20066;-63
2023/12/12 06:50:59;;;;;;;19.33;5.43;;;;;;;;;;5133334;28;20055;-63
2023/12/12 06:53:25;;;;;;;20.17;6.28;;;;;;;;;;5132863;28;20051;-64
2023/12/12 06:55:52;;;;;;;17.38;5.38;;;;;;;;;;5133266;28;20062;-64
2023/12/12 06:58:22;;;;;;;16.52;5.68;;;;;;;;;;5133104;28;20062;-64
2023/12/12 07:00:48;;;;;;;21.83;5.90;;;;;;;;;;5132965;27;20050;-63
2023/12/12 07:03:15;;;;;;;16.75;5.68;;;;;;;;;;5136524;27;20051;-64
2023/12/12 07:05:42;;;;;;;21.98;6.30;;;;;;;;;;5137362;27;20055;-64
2023/12/12 07:08:09;;;;;;;21.70;5.70;;;;;;;;;;5137092;27;20054;-64
2023/12/12 07:10:35;;;;;;;16.60;5.00;;;;;;;;;;5137068;27;20054;-64
2023/12/12 07:13:02;;;;;;;23.77;5.22;;;;;;;;;;5136632;27;20059;-64
2023/12/12 07:15:30;;;;;;;17.02;4.53;;;;;;;;;;5137050;27;20081;-64
2023/12/12 07:17:57;;;;;;;16.95;4.60;;;;;;;;;;5137081;27;20065;-63
2023/12/12 07:20:24;;;;;;;17.77;4.65;;;;;;;;;;5136974;27;20399;-62
2023/12/12 07:22:51;;;;;;;21.85;6.20;;;;;;;;;;5137151;27;20073;-64
2023/12/12 07:25:20;;;;;;;16.02;5.07;;;;;;;;;;5136590;27;20047;-63
2023/12/12 07:27:47;;;;;;;20.77;5.80;;;;;;;;;;5136983;27;20051;-63
2023/12/12 07:30:14;;;;;;;15.60;4.82;;;;;;;;;;5136840;27;20043;-63
2023/12/12 07:32:43;;;;;;;13.63;4.00;;;;;;;;;;5136860;27;20496;-64
2023/12/12 07:35:10;;;;;;;18.73;3.63;;;;;;;;;;5136908;27;20051;-63
2023/12/12 07:37:37;;;;;;;16.33;4.10;;;;;;;;;;5136366;27;20058;-63
2023/12/12 07:40:04;;;;;;;14.63;4.13;;;;;;;;;;5136203;27;20142;-63
2023/12/12 07:42:31;;;;;;;14.13;4.18;;;;;;;;;;5136548;27;20051;-63
2023/12/12 07:44:58;;;;;;;12.80;3.53;;;;;;;;;;5136447;27;20070;-63
2023/12/12 07:47:25;;;;;;;21.92;4.82;;;;;;;;;;5136557;27;20055;-63
2023/12/12 07:49:54;;;;;;;13.23;4.75;;;;;;;;;;5136494;27;20403;-63
2023/12/12 07:52:21;;;;;;;14.00;4.18;;;;;;;;;;5136670;27;20055;-63
2023/12/12 07:54:46;;;;;;;13.70;3.65;;;;;;;;;;5136093;27;20074;-63
2023/12/12 07:57:13;;;;;;;15.60;4.20;;;;;;;;;;5136232;27;20464;-63
2023/12/12 07:59:40;;;;;;;17.10;3.88;;;;;;;;;;5136267;27;20054;-64
2023/12/12 08:02:07;;;;;;;16.77;4.13;;;;;;;;;;5135917;27;20059;-63
2023/12/12 08:04:35;;;;;;;18.23;4.72;;;;;;;;;;5135871;27;20058;-63
2023/12/12 08:07:04;;;;;;;15.77;4.28;;;;;;;;;;5135947;27;20058;-63
2023/12/12 08:09:31;;;;;;;12.65;3.50;;;;;;;;;;5135990;27;20051;-63
2023/12/12 08:11:57;;;;;;;14.50;4.05;;;;;;;;;;5135316;27;20051;-63
2023/12/12 08:14:24;;;;;;;11.43;3.80;;;;;;;;;;5135697;27;20062;-63
2023/12/12 08:16:51;;;;;;;13.52;3.45;;;;;;;;;;5135660;27;20043;-63
2023/12/12 08:19:18;;;;;;;13.15;3.70;;;;;;;;;;5135314;27;20055;-63
2023/12/12 08:21:45;;;;;;;12.80;3.60;;;;;;;;;;5135616;27;20071;-63
2023/12/12 08:24:13;;;;;;;12.13;3.42;;;;;;;;;;5135100;27;20414;-63
2023/12/12 08:26:41;;;;;;;17.05;4.28;;;;;;;;;;5135406;27;20055;-63
2023/12/12 08:29:07;;;;;;;14.60;3.97;;;;;;;;;;5134891;27;20077;-62
2023/12/12 08:31:34;;;;;;;10.70;3.53;;;;;;;;;;5135219;27;20051;-63
2023/12/12 08:34:02;;;;;;;12.65;3.42;;;;;;;;;;5135728;27;20415;-63
2023/12/12 08:36:29;;;;;;;15.65;3.55;;;;;;;;;;5135335;27;20058;-63
2023/12/12 08:38:58;;;;;;;12.02;3.55;;;;;;;;;;5135431;27;20078;-63
2023/12/12 08:41:27;;;;;;;11.35;3.70;;;;;;;;;;5134732;27;20043;-63
2023/12/12 08:43:54;;;;;;;;;;;;;;;;;;5135743;27;20047;-64
2023/12/12 08:46:26;;;;;;;13.18;3.50;;;;;;;;;;5135075;27;19929;-63
2023/12/12 08:48:53;;;;;;;14.57;3.80;;;;;;;;;;5135419;27;20051;-63
2023/12/12 08:51:21;;;;;;;12.65;3.50;;;;;;;;;;5135495;27;20047;-63
2023/12/12 08:53:48;;;;;;;14.85;3.88;;;;;;;;;;5135251;27;20054;-63
2023/12/12 08:56:15;;;;;;;12.32;3.38;;;;;;;;;;5135206;27;20055;-63
2023/12/12 08:58:45;;;;;;;15.07;3.53;;;;;;;;;;5135265;27;20051;-63
2023/12/12 09:01:12;;;;;;;13.02;3.20;;;;;;;;;;5134927;27;20051;-63
2023/12/12 09:03:40;;;;;;;11.23;3.65;;;;;;;;;;5134890;27;20471;-63
2023/12/12 09:06:08;;;;;;;15.98;3.55;;;;;;;;;;5135224;27;20071;-63
2023/12/12 09:08:35;;;;;;;12.63;3.13;;;;;;;;;;5134559;27;20051;-64
2023/12/12 09:11:02;;;;;;;10.07;3.08;;;;;;;;;;5134889;27;20058;-63
2023/12/12 09:13:29;;;;;;;10.02;2.80;;;;;;;;;;5134488;27;20051;-62
2023/12/12 09:15:58;;;;;;;13.93;3.00;;;;;;;;;;5134623;27;20061;-63
2023/12/12 09:18:25;;;;;;;15.38;4.40;;;;;;;;;;5134547;27;20051;-64
2023/12/12 09:20:52;;;;;;;12.68;3.50;;;;;;;;;;5134631;27;20476;-64
2023/12/12 09:23:18;;;;;;;15.15;3.65;;;;;;;;;;5134336;27;20058;-64
2023/12/12 09:25:45;;;;;;;11.00;3.28;;;;;;;;;;5133541;27;20047;-64
2023/12/12 09:28:12;;;;;;;9.30;2.80;;;;;;;;;;5134386;27;20488;-63
2023/12/12 09:30:39;;;;;;;10.43;2.80;;;;;;;;;;5134653;27;20067;-64
2023/12/12 09:33:07;;;;;;;13.05;3.58;;;;;;;;;;5134316;27;20058;-65
2023/12/12 09:35:35;;;;;;;15.48;3.83;;;;;;;;;;5134482;27;20058;-64
2023/12/12 09:38:02;;;;;;;11.25;3.05;;;;;;;;;;5134492;27;20062;-64
2023/12/12 09:40:29;;;;;;;10.57;3.08;;;;;;;;;;5134201;27;20054;-64
2023/12/12 09:42:57;;;;;;;11.45;3.22;;;;;;;;;;5134435;27;20058;-64
2023/12/12 09:45:25;;;;;;;10.55;3.10;;;;;;;;;;5134235;27;20055;-63
2023/12/12 09:47:52;;;;;;;10.90;3.38;;;;;;;;;;5134188;27;20055;-64
2023/12/12 09:50:20;;;;;;;12.77;3.20;;;;;;;;;;5134248;27;20047;-63
2023/12/12 09:52:48;;;;;;;10.50;2.83;;;;;;;;;;5134109;27;20055;-64
2023/12/12 09:55:15;;;;;;;15.80;3.20;;;;;;;;;;5133803;27;20380;-64
2023/12/12 09:57:42;;;;;;;10.93;3.22;;;;;;;;;;5133763;27;20047;-64
2023/12/12 10:00:09;;;;;;;12.23;2.90;;;;;;;;;;5133959;27;20047;-64
2023/12/12 10:02:36;;;;;;;12.15;3.38;;;;;;;;;;5133810;27;20051;-64
2023/12/12 10:05:04;;;;;;;14.57;3.05;;;;;;;;;;5134083;27;20404;-64
2023/12/12 10:07:33;;;;;;;5.70;2.10;;;;;;;;;;5133699;27;20058;-65
2023/12/12 10:10:04;;;;;;;9.05;2.67;;;;;;;;;;5133607;27;20055;-64
2023/12/12 10:12:30;;;;;;;8.85;2.40;;;;;;;;;;5133602;27;20076;-64
2023/12/12 10:14:58;;;;;;;7.93;2.53;;;;;;;;;;5133625;27;20456;-64
2023/12/12 10:17:26;;;;;;;10.25;2.42;;;;;;;;;;5133796;27;20055;-64
2023/12/12 10:19:59;;;;;;;6.13;2.22;;;;;;;;;;5133518;27;20051;-64
2023/12/12 10:22:25;;;;;;;5.07;2.40;;;;;;;;;;5133463;27;20051;-64
2023/12/12 10:24:54;;;;;;;8.82;2.53;;;;;;;;;;5132910;27;20078;-64
2023/12/12 10:27:21;;;;;;;8.02;2.05;;;;;;;;;;5133718;27;20058;-64
2023/12/12 10:29:49;;;;;;;6.03;1.80;;;;;;;;;;5133629;27;20054;-65
2023/12/12 10:32:16;;;;;;;6.72;2.47;;;;;;;;;;5133723;27;20051;-64
2023/12/12 10:34:46;;;;;;;6.50;1.85;;;;;;;;;;5133097;27;20118;-65
2023/12/12 10:37:13;;;;;;;6.28;1.92;;;;;;;;;;5132443;27;20062;-65
2023/12/12 10:39:43;;;;;;;4.57;1.70;;;;;;;;;;5133361;27;20499;-65
2023/12/12 10:42:11;;;;;;;5.45;1.65;;;;;;;;;;5133175;27;20071;-65
2023/12/12 10:44:40;;;;;;;6.22;1.98;;;;;;;;;;5133335;27;20054;-64
2023/12/12 10:47:08;;;;;;;11.68;2.13;;;;;;;;;;5133615;27;20054;-65
2023/12/12 10:49:36;;;;;;;5.13;1.85;;;;;;;;;;5132977;27;20051;-65
2023/12/12 10:52:05;;;;;;;4.20;1.98;;;;;;;;;;5133272;27;20044;-65
2023/12/12 10:54:33;;;;;;;5.53;2.28;;;;;;;;;;5133091;27;20062;-65
2023/12/12 10:57:01;;;;;;;4.82;1.85;;;;;;;;;;5133200;27;20058;-64
2023/12/12 10:59:30;;;;;;;5.28;1.70;;;;;;;;;;5133065;27;20058;-65
2023/12/12 11:01:57;;;;;;;4.78;1.88;;;;;;;;;;5132834;27;20047;-65
2023/12/12 11:04:25;;;;;;;6.90;2.17;;;;;;;;;;5132936;27;20039;-65
2023/12/12 11:06:52;;;;;;;6.65;2.42;;;;;;;;;;5133500;27;20488;-65
2023/12/12 11:09:19;;;;;;;5.45;1.80;;;;;;;;;;5133130;27;20055;-64
2023/12/12 11:11:48;;;;;;;5.43;2.00;;;;;;;;;;5133196;27;20051;-65
2023/12/12 11:14:14;;;;;;;;;;;;;;;;;;5133521;27;20051;-65
2023/12/12 11:16:43;;;;;;;4.45;1.75;;;;;;;;;;5132869;27;19927;-65
2023/12/12 11:19:15;;;;;;;7.88;2.30;;;;;;;;;;5132915;27;20357;-64
2023/12/12 11:21:46;;;;;;;5.45;2.17;;;;;;;;;;5133120;27;20502;-65
2023/12/12 11:24:12;;;;;;;4.85;1.70;;;;;;;;;;5132748;27;20399;-65
2023/12/12 11:26:41;;;;;;;4.78;1.77;;;;;;;;;;5133289;27;20051;-65
2023/12/12 11:29:08;;;;;;;5.50;2.03;;;;;;;;;;5132606;27;20051;-65
2023/12/12 11:31:35;;;;;;;6.13;2.25;;;;;;;;;;5133244;27;20379;-65
2023/12/12 11:34:07;;;;;;;5.65;2.28;;;;;;;;;;5132837;27;20058;-65
2023/12/12 11:36:53;;;;;;;5.30;2.08;;;;;;;;;;5132936;27;20510;-65
2023/12/12 11:39:30;;;;;;;6.20;2.00;;;;;;;;;;5132925;27;20507;-65
2023/12/12 11:41:57;;;;;;;5.57;2.33;;;;;;;;;;5132973;27;20121;-65
2023/12/12 11:44:24;;;;;;;7.07;2.53;;;;;;;;;;5132634;27;20078;-65
2023/12/12 11:46:51;;;;;;;5.63;1.92;;;;;;;;;;5133056;27;20062;-64
2023/12/12 11:49:20;;;;;;;4.95;1.90;;;;;;;;;;5136501;27;20415;-65
2023/12/12 11:51:49;;;;;;;5.97;2.03;;;;;;;;;;5136403;27;20072;-65
2023/12/12 11:54:20;;;;;;;6.07;1.90;;;;;;;;;;5136493;27;20059;-65
2023/12/12 11:56:47;;;;;;;4.07;1.55;;;;;;;;;;5136633;27;20078;-65
2023/12/12 11:59:21;;;;;;;5.03;1.80;;;;;;;;;;5135967;27;20488;-65
2023/12/12 12:01:47;;;;;;;5.72;1.80;;;;;;;;;;5136256;27;20058;-65
2023/12/12 12:04:14;;;;;;;5.97;1.50;;;;;;;;;;5136239;27;20055;-64
2023/12/12 12:06:43;;;;;;;5.90;1.75;;;;;;;;;;5136253;27;20047;-64
2023/12/12 12:09:11;;;;;;;5.72;2.00;;;;;;;;;;5136111;27;20059;-65
2023/12/12 12:11:38;;;;;;;5.00;1.50;;;;;;;;;;5136375;27;20054;-64
2023/12/12 12:14:05;;;;;;;8.60;2.28;;;;;;;;;;5135914;27;20047;-64
2023/12/12 12:16:32;;;;;;;5.28;1.70;;;;;;;;;;5135799;27;20054;-64
2023/12/12 12:19:19;;;;;;;6.82;1.90;;;;;;;;;;5136012;27;20058;-64
2023/12/12 12:21:48;;;;;;;5.30;1.67;;;;;;;;;;5135738;27;20043;-63
2023/12/12 12:24:15;;;;;;;5.80;1.77;;;;;;;;;;5135178;27;20051;-64
2023/12/12 12:26:41;;;;;;;5.20;1.80;;;;;;;;;;5135732;27;20473;-64
2023/12/12 12:29:09;;;;;;;5.95;2.20;;;;;;;;;;5135215;27;20416;-64
2023/12/12 12:31:36;;;;;;;6.43;2.28;;;;;;;;;;5135848;27;20408;-64
2023/12/12 12:34:02;;;;;;;6.00;1.92;;;;;;;;;;5135634;27;20054;-64
2023/12/12 12:36:37;;;;;;;6.10;1.60;;;;;;;;;;5135341;27;20078;-64
2023/12/12 12:39:05;;;;;;;4.85;1.50;;;;;;;;;;5135461;27;20484;-63
2023/12/12 12:41:32;;;;;;;4.15;1.42;;;;;;;;;;5135594;27;20062;-65
2023/12/12 12:43:59;;;;;;;6.13;1.90;;;;;;;;;;5135505;27;20057;-64
2023/12/12 12:46:26;;;;;;;4.95;1.70;;;;;;;;;;5135128;27;20047;-64
2023/12/12 12:48:52;;;;;;;4.78;1.52;;;;;;;;;;5135344;27;20428;-64
2023/12/12 12:51:19;;;;;;;4.35;1.55;;;;;;;;;;5135382;27;20487;-64
2023/12/12 12:53:46;;;;;;;5.05;1.75;;;;;;;;;;5135240;27;20051;-64
2023/12/12 12:56:14;;;;;;;5.00;1.60;;;;;;;;;;5135164;27;20468;-64
2023/12/12 12:58:41;;;;;;;7.28;2.10;;;;;;;;;;5134291;27;20516;-64
2023/12/12 13:01:08;;;;;;;5.28;1.42;;;;;;;;;;5134633;27;20059;-64
2023/12/12 13:03:35;;;;;;;5.65;2.25;;;;;;;;;;5134654;27;20530;-63
2023/12/12 13:06:02;;;;;;;8.20;2.30;;;;;;;;;;5135004;27;20055;-63
2023/12/12 13:08:30;;;;;;;5.03;1.85;;;;;;;;;;5134881;27;20057;-64
2023/12/12 13:10:56;;;;;;;5.50;1.80;;;;;;;;;;5134713;27;20051;-63
2023/12/12 13:13:25;;;;;;;6.60;1.85;;;;;;;;;;5134973;27;20051;-63
2023/12/12 13:15:51;;;;;;;5.43;1.77;;;;;;;;;;5134348;27;20062;-64
2023/12/12 13:18:18;;;;;;;5.68;1.67;;;;;;;;;;5135001;27;20418;-64
2023/12/12 13:20:46;;;;;;;5.18;1.40;;;;;;;;;;5134561;27;20051;-64
2023/12/12 13:23:12;;;;;;;7.22;1.52;;;;;;;;;;5134495;27;20047;-64
2023/12/12 13:25:39;;;;;;;6.55;1.60;;;;;;;;;;5133728;27;20054;-64
2023/12/12 13:28:07;;;;;;;6.35;1.95;;;;;;;;;;5134376;27;20066;-64
2023/12/12 13:30:36;;;;;;;4.95;1.50;;;;;;;;;;5134496;27;20051;-64
2023/12/12 13:33:05;;;;;;;6.07;1.70;;;;;;;;;;5134541;27;20047;-64
2023/12/12 13:35:32;;;;;;;8.75;1.80;;;;;;;;;;5134667;27;20051;-64
2023/12/12 13:37:59;;;;;;;4.60;1.63;;;;;;;;;;5134442;27;20051;-64
2023/12/12 13:40:26;;;;;;;4.72;1.40;;;;;;;;;;5134147;27;20058;-64
2023/12/12 13:42:52;;;;;;;6.03;1.73;;;;;;;;;;5134295;27;20490;-64
2023/12/12 13:45:19;;;;;;;5.75;1.83;;;;;;;;;;5134183;27;20082;-64
2023/12/12 13:47:47;;;;;;;7.20;1.90;;;;;;;;;;5134340;27;20504;-64
2023/12/12 13:50:14;;;;;;;5.85;1.90;;;;;;;;;;5133973;27;20057;-64
2023/12/12 13:52:42;;;;;;;8.63;1.73;;;;;;;;;;5134281;27;20047;-64
2023/12/12 13:55:08;;;;;;;5.72;1.52;;;;;;;;;;5133885;27;20051;-64
2023/12/12 13:57:35;;;;;;;3.55;1.50;;;;;;;;;;5133888;27;20051;-64
2023/12/12 14:00:02;;;;;;;4.15;1.50;;;;;;;;;;5133926;27;20062;-63
2023/12/12 14:02:29;;;;;;;4.03;1.65;;;;;;;;;;5133385;27;20051;-64
2023/12/12 14:04:59;;;;;;;6.07;1.55;;;;;;;;;;5133677;27;20054;-64
2023/12/12 14:07:26;;;;;;;5.60;1.92;;;;;;;;;;5133511;27;20104;-63
2023/12/12 14:09:52;;;;;;;4.47;1.60;;;;;;;;;;5133604;27;20464;-63
2023/12/12 14:12:19;;;;;;;4.13;1.60;;;;;;;;;;5133345;27;20054;-65
2023/12/12 14:14:46;;;;;;;7.85;1.83;;;;;;;;;;5133512;27;20051;-63
2023/12/12 14:17:14;;;;;;;5.80;1.80;;;;;;;;;;5133488;27;20054;-63
2023/12/12 14:19:41;;;;;;;6.45;1.88;;;;;;;;;;5133716;27;20055;-63
2023/12/12 14:22:09;;;;;;;7.97;2.17;;;;;;;;;;5133623;27;20499;-63
2023/12/12 14:24:36;;;;;;;7.97;2.15;;;;;;;;;;5133190;27;20074;-63
2023/12/12 14:27:04;;;;;;;5.85;2.20;;;;;;;;;;5133649;27;20062;-62
2023/12/12 14:29:31;;;;;;;8.38;2.28;;;;;;;;;;5133254;27;20047;-62
2023/12/12 14:31:57;;;;;;;7.18;2.40;;;;;;;;;;5133491;27;20055;-63
2023/12/12 14:34:25;;;;;;;8.35;1.92;;;;;;;;;;5133211;27;21011;-63
2023/12/12 14:36:51;;;;;;;8.20;2.10;;;;;;;;;;5133157;27;20054;-63